sensor_id;sensor_type;location;lat;lon;timestamp;P1;durP1;ratioP1;P2;durP2;ratioP2
4806;SDS011;2417;52.482;13.432;2023-06-10T00:00:08;29.13;;;8.87;;
4806;SDS011;2417;52.482;13.432;2023-06-10T00:02:39;22.70;;;7.17;;
4806;SDS011;2417;52.482;13.432;2023-06-10T00:05:08;24.30;;;7.47;;
4806;SDS011;2417;52.482;13.432;2023-06-10T00:07:37;25.40;;;6.97;;
4806;SDS011;2417;52.482;13.432;2023-06-10T00:10:07;33.23;;;10.70;;
4806;SDS011;2417;52.482;13.432;2023-06-10T00:12:37;20.67;;;6.50;;
4806;SDS011;2417;52.482;13.432;2023-06-10T00:15:07;26.03;;;8.27;;
4806;SDS011;2417;52.482;13.432;2023-06-10T00:17:35;30.90;;;9.40;;
4806;SDS011;2417;52.482;13.432;2023-06-10T00:20:07;27.87;;;7.73;;
4806;SDS011;2417;52.482;13.432;2023-06-10T00:22:36;20.93;;;6.60;;
4806;SDS011;2417;52.482;13.432;2023-06-10T00:25:06;28.07;;;8.53;;
4806;SDS011;2417;52.482;13.432;2023-06-10T00:27:34;29.37;;;11.17;;
4806;SDS011;2417;52.482;13.432;2023-06-10T00:30:03;25.13;;;8.03;;
4806;SDS011;2417;52.482;13.432;2023-06-10T00:32:35;23.60;;;7.20;;
4806;SDS011;2417;52.482;13.432;2023-06-10T00:35:03;24.37;;;8.00;;
4806;SDS011;2417;52.482;13.432;2023-06-10T00:37:33;23.77;;;8.00;;
4806;SDS011;2417;52.482;13.432;2023-06-10T00:40:01;28.83;;;8.63;;
4806;SDS011;2417;52.482;13.432;2023-06-10T00:42:31;30.90;;;11.93;;
4806;SDS011;2417;52.482;13.432;2023-06-10T00:44:59;31.73;;;12.67;;
4806;SDS011;2417;52.482;13.432;2023-06-10T00:47:28;30.97;;;9.50;;
4806;SDS011;2417;52.482;13.432;2023-06-10T00:49:59;25.77;;;8.10;;
4806;SDS011;2417;52.482;13.432;2023-06-10T00:52:28;32.43;;;11.40;;
4806;SDS011;2417;52.482;13.432;2023-06-10T00:54:56;30.17;;;11.83;;
4806;SDS011;2417;52.482;13.432;2023-06-10T00:57:25;31.87;;;10.33;;
4806;SDS011;2417;52.482;13.432;2023-06-10T00:59:54;31.53;;;10.83;;
4806;SDS011;2417;52.482;13.432;2023-06-10T01:02:21;29.50;;;8.63;;
4806;SDS011;2417;52.482;13.432;2023-06-10T01:04:52;27.80;;;9.50;;
4806;SDS011;2417;52.482;13.432;2023-06-10T01:07:23;26.73;;;8.43;;
4806;SDS011;2417;52.482;13.432;2023-06-10T01:09:54;26.40;;;9.80;;
4806;SDS011;2417;52.482;13.432;2023-06-10T01:12:26;27.17;;;9.10;;
4806;SDS011;2417;52.482;13.432;2023-06-10T01:14:57;26.43;;;7.70;;
4806;SDS011;2417;52.482;13.432;2023-06-10T01:17:25;27.23;;;9.07;;
4806;SDS011;2417;52.482;13.432;2023-06-10T01:19:54;25.87;;;6.70;;
4806;SDS011;2417;52.482;13.432;2023-06-10T01:22:25;24.70;;;8.13;;
4806;SDS011;2417;52.482;13.432;2023-06-10T01:24:55;23.13;;;7.00;;
4806;SDS011;2417;52.482;13.432;2023-06-10T01:27:26;25.07;;;6.63;;
4806;SDS011;2417;52.482;13.432;2023-06-10T01:29:58;20.83;;;5.83;;
4806;SDS011;2417;52.482;13.432;2023-06-10T01:32:32;24.90;;;6.50;;
4806;SDS011;2417;52.482;13.432;2023-06-10T01:35:02;24.00;;;6.70;;
4806;SDS011;2417;52.482;13.432;2023-06-10T01:37:32;25.83;;;6.20;;
4806;SDS011;2417;52.482;13.432;2023-06-10T01:40:01;24.03;;;7.07;;
4806;SDS011;2417;52.482;13.432;2023-06-10T01:42:34;20.00;;;6.20;;
4806;SDS011;2417;52.482;13.432;2023-06-10T01:45:02;23.60;;;6.77;;
4806;SDS011;2417;52.482;13.432;2023-06-10T01:47:30;23.67;;;7.17;;
4806;SDS011;2417;52.482;13.432;2023-06-10T01:50:00;25.00;;;6.60;;
4806;SDS011;2417;52.482;13.432;2023-06-10T01:52:29;26.20;;;6.53;;
4806;SDS011;2417;52.482;13.432;2023-06-10T01:54:59;29.80;;;6.97;;
4806;SDS011;2417;52.482;13.432;2023-06-10T01:57:27;21.03;;;6.30;;
4806;SDS011;2417;52.482;13.432;2023-06-10T01:59:55;23.60;;;6.80;;
4806;SDS011;2417;52.482;13.432;2023-06-10T02:02:23;23.13;;;6.33;;
4806;SDS011;2417;52.482;13.432;2023-06-10T02:04:51;24.00;;;7.00;;
4806;SDS011;2417;52.482;13.432;2023-06-10T02:07:20;26.53;;;6.67;;
4806;SDS011;2417;52.482;13.432;2023-06-10T02:09:49;30.57;;;6.40;;
4806;SDS011;2417;52.482;13.432;2023-06-10T02:12:19;28.13;;;6.63;;
4806;SDS011;2417;52.482;13.432;2023-06-10T02:14:47;39.10;;;6.63;;
4806;SDS011;2417;52.482;13.432;2023-06-10T02:17:14;24.77;;;6.20;;
4806;SDS011;2417;52.482;13.432;2023-06-10T02:19:42;28.47;;;6.90;;
4806;SDS011;2417;52.482;13.432;2023-06-10T02:22:10;22.83;;;6.30;;
4806;SDS011;2417;52.482;13.432;2023-06-10T02:24:38;22.90;;;6.13;;
4806;SDS011;2417;52.482;13.432;2023-06-10T02:27:06;25.90;;;7.10;;
4806;SDS011;2417;52.482;13.432;2023-06-10T02:29:35;24.93;;;6.93;;
4806;SDS011;2417;52.482;13.432;2023-06-10T02:32:04;24.83;;;6.97;;
4806;SDS011;2417;52.482;13.432;2023-06-10T02:34:36;29.57;;;6.63;;
4806;SDS011;2417;52.482;13.432;2023-06-10T02:37:06;28.07;;;6.63;;
4806;SDS011;2417;52.482;13.432;2023-06-10T02:39:34;23.33;;;6.27;;
4806;SDS011;2417;52.482;13.432;2023-06-10T02:42:06;28.97;;;7.20;;
4806;SDS011;2417;52.482;13.432;2023-06-10T02:44:35;20.93;;;6.27;;
4806;SDS011;2417;52.482;13.432;2023-06-10T02:47:05;26.33;;;7.27;;
4806;SDS011;2417;52.482;13.432;2023-06-10T02:49:35;28.00;;;6.33;;
4806;SDS011;2417;52.482;13.432;2023-06-10T02:52:03;23.33;;;6.03;;
4806;SDS011;2417;52.482;13.432;2023-06-10T02:54:31;25.47;;;7.30;;
4806;SDS011;2417;52.482;13.432;2023-06-10T02:56:59;20.60;;;6.00;;
4806;SDS011;2417;52.482;13.432;2023-06-10T02:59:28;24.00;;;6.90;;
4806;SDS011;2417;52.482;13.432;2023-06-10T03:01:58;27.70;;;6.60;;
4806;SDS011;2417;52.482;13.432;2023-06-10T03:04:31;24.30;;;6.80;;
4806;SDS011;2417;52.482;13.432;2023-06-10T03:07:05;21.70;;;6.43;;
4806;SDS011;2417;52.482;13.432;2023-06-10T03:09:35;26.60;;;6.30;;
4806;SDS011;2417;52.482;13.432;2023-06-10T03:12:04;26.20;;;7.27;;
4806;SDS011;2417;52.482;13.432;2023-06-10T03:14:39;26.77;;;6.63;;
4806;SDS011;2417;52.482;13.432;2023-06-10T03:17:09;28.17;;;7.10;;
4806;SDS011;2417;52.482;13.432;2023-06-10T03:19:40;29.27;;;6.97;;
4806;SDS011;2417;52.482;13.432;2023-06-10T03:22:09;23.10;;;7.07;;
4806;SDS011;2417;52.482;13.432;2023-06-10T03:24:42;23.30;;;6.80;;
4806;SDS011;2417;52.482;13.432;2023-06-10T03:27:10;23.33;;;6.60;;
4806;SDS011;2417;52.482;13.432;2023-06-10T03:29:40;25.50;;;6.67;;
4806;SDS011;2417;52.482;13.432;2023-06-10T03:32:09;24.17;;;6.80;;
4806;SDS011;2417;52.482;13.432;2023-06-10T03:34:39;22.23;;;6.40;;
4806;SDS011;2417;52.482;13.432;2023-06-10T03:37:08;25.43;;;7.40;;
4806;SDS011;2417;52.482;13.432;2023-06-10T03:39:36;26.33;;;6.47;;
4806;SDS011;2417;52.482;13.432;2023-06-10T03:42:05;28.93;;;6.77;;
4806;SDS011;2417;52.482;13.432;2023-06-10T03:44:33;24.23;;;6.77;;
4806;SDS011;2417;52.482;13.432;2023-06-10T03:47:01;26.27;;;7.30;;
4806;SDS011;2417;52.482;13.432;2023-06-10T03:49:31;26.63;;;6.97;;
4806;SDS011;2417;52.482;13.432;2023-06-10T03:52:01;31.03;;;7.60;;
4806;SDS011;2417;52.482;13.432;2023-06-10T03:54:29;28.37;;;7.20;;
4806;SDS011;2417;52.482;13.432;2023-06-10T03:56:59;26.00;;;7.23;;
4806;SDS011;2417;52.482;13.432;2023-06-10T03:59:27;34.13;;;8.07;;
4806;SDS011;2417;52.482;13.432;2023-06-10T04:01:56;29.10;;;7.07;;
4806;SDS011;2417;52.482;13.432;2023-06-10T04:04:24;28.17;;;6.83;;
4806;SDS011;2417;52.482;13.432;2023-06-10T04:06:54;25.13;;;7.20;;
4806;SDS011;2417;52.482;13.432;2023-06-10T04:09:23;25.57;;;7.53;;
4806;SDS011;2417;52.482;13.432;2023-06-10T04:11:52;30.30;;;8.00;;
4806;SDS011;2417;52.482;13.432;2023-06-10T04:14:20;25.07;;;6.90;;
4806;SDS011;2417;52.482;13.432;2023-06-10T04:16:49;23.03;;;7.03;;
4806;SDS011;2417;52.482;13.432;2023-06-10T04:19:18;30.63;;;7.90;;
4806;SDS011;2417;52.482;13.432;2023-06-10T04:21:46;29.70;;;7.67;;
4806;SDS011;2417;52.482;13.432;2023-06-10T04:24:16;22.33;;;7.23;;
4806;SDS011;2417;52.482;13.432;2023-06-10T04:26:44;25.40;;;7.10;;
4806;SDS011;2417;52.482;13.432;2023-06-10T04:29:13;23.83;;;7.43;;
4806;SDS011;2417;52.482;13.432;2023-06-10T04:31:47;26.57;;;7.67;;
4806;SDS011;2417;52.482;13.432;2023-06-10T04:34:15;23.40;;;7.40;;
4806;SDS011;2417;52.482;13.432;2023-06-10T04:36:43;26.00;;;7.27;;
4806;SDS011;2417;52.482;13.432;2023-06-10T04:39:11;23.03;;;7.93;;
4806;SDS011;2417;52.482;13.432;2023-06-10T04:41:41;24.90;;;7.23;;
4806;SDS011;2417;52.482;13.432;2023-06-10T04:44:08;31.80;;;8.03;;
4806;SDS011;2417;52.482;13.432;2023-06-10T04:46:37;22.90;;;7.90;;
4806;SDS011;2417;52.482;13.432;2023-06-10T04:49:06;25.40;;;8.00;;
4806;SDS011;2417;52.482;13.432;2023-06-10T04:51:34;30.27;;;7.33;;
4806;SDS011;2417;52.482;13.432;2023-06-10T04:54:03;24.70;;;8.37;;
4806;SDS011;2417;52.482;13.432;2023-06-10T04:56:30;23.70;;;7.40;;
4806;SDS011;2417;52.482;13.432;2023-06-10T04:59:00;19.50;;;6.50;;
4806;SDS011;2417;52.482;13.432;2023-06-10T05:01:29;30.80;;;8.47;;
4806;SDS011;2417;52.482;13.432;2023-06-10T05:03:57;21.20;;;7.10;;
4806;SDS011;2417;52.482;13.432;2023-06-10T05:06:27;29.30;;;7.17;;
4806;SDS011;2417;52.482;13.432;2023-06-10T05:08:55;24.63;;;7.77;;
4806;SDS011;2417;52.482;13.432;2023-06-10T05:11:28;27.97;;;7.50;;
4806;SDS011;2417;52.482;13.432;2023-06-10T05:13:57;25.10;;;7.40;;
4806;SDS011;2417;52.482;13.432;2023-06-10T05:16:26;31.57;;;7.80;;
4806;SDS011;2417;52.482;13.432;2023-06-10T05:18:55;24.83;;;7.80;;
4806;SDS011;2417;52.482;13.432;2023-06-10T05:21:23;23.10;;;7.03;;
4806;SDS011;2417;52.482;13.432;2023-06-10T05:23:51;23.07;;;7.47;;
4806;SDS011;2417;52.482;13.432;2023-06-10T05:26:19;25.97;;;7.63;;
4806;SDS011;2417;52.482;13.432;2023-06-10T05:28:48;23.00;;;6.93;;
4806;SDS011;2417;52.482;13.432;2023-06-10T05:31:17;20.80;;;7.40;;
4806;SDS011;2417;52.482;13.432;2023-06-10T05:33:46;19.23;;;6.90;;
4806;SDS011;2417;52.482;13.432;2023-06-10T05:36:15;21.10;;;7.27;;
4806;SDS011;2417;52.482;13.432;2023-06-10T05:38:44;22.47;;;8.13;;
4806;SDS011;2417;52.482;13.432;2023-06-10T05:41:14;19.43;;;7.17;;
4806;SDS011;2417;52.482;13.432;2023-06-10T05:43:42;23.23;;;7.67;;
4806;SDS011;2417;52.482;13.432;2023-06-10T05:46:10;22.10;;;7.70;;
4806;SDS011;2417;52.482;13.432;2023-06-10T05:48:38;20.00;;;7.20;;
4806;SDS011;2417;52.482;13.432;2023-06-10T05:51:07;25.20;;;7.80;;
4806;SDS011;2417;52.482;13.432;2023-06-10T05:53:35;22.80;;;7.30;;
4806;SDS011;2417;52.482;13.432;2023-06-10T05:56:06;24.60;;;8.17;;
4806;SDS011;2417;52.482;13.432;2023-06-10T05:58:34;20.17;;;8.10;;
4806;SDS011;2417;52.482;13.432;2023-06-10T06:01:02;19.23;;;6.73;;
4806;SDS011;2417;52.482;13.432;2023-06-10T06:03:30;20.77;;;7.30;;
4806;SDS011;2417;52.482;13.432;2023-06-10T06:06:00;24.87;;;7.40;;
4806;SDS011;2417;52.482;13.432;2023-06-10T06:08:30;28.60;;;8.47;;
4806;SDS011;2417;52.482;13.432;2023-06-10T06:10:58;23.63;;;7.97;;
4806;SDS011;2417;52.482;13.432;2023-06-10T06:13:35;20.90;;;7.77;;
4806;SDS011;2417;52.482;13.432;2023-06-10T06:16:03;25.23;;;8.73;;
4806;SDS011;2417;52.482;13.432;2023-06-10T06:18:33;25.77;;;9.00;;
4806;SDS011;2417;52.482;13.432;2023-06-10T06:21:01;26.03;;;9.10;;
4806;SDS011;2417;52.482;13.432;2023-06-10T06:23:33;19.83;;;7.90;;
4806;SDS011;2417;52.482;13.432;2023-06-10T06:26:01;21.27;;;8.43;;
4806;SDS011;2417;52.482;13.432;2023-06-10T06:28:31;27.27;;;8.40;;
4806;SDS011;2417;52.482;13.432;2023-06-10T06:30:59;24.83;;;8.67;;
4806;SDS011;2417;52.482;13.432;2023-06-10T06:33:27;21.77;;;8.57;;
4806;SDS011;2417;52.482;13.432;2023-06-10T06:35:55;21.40;;;8.57;;
4806;SDS011;2417;52.482;13.432;2023-06-10T06:38:23;26.27;;;11.93;;
4806;SDS011;2417;52.482;13.432;2023-06-10T06:40:52;26.63;;;10.20;;
4806;SDS011;2417;52.482;13.432;2023-06-10T06:43:20;21.83;;;8.53;;
4806;SDS011;2417;52.482;13.432;2023-06-10T06:46:10;19.10;;;8.07;;
4806;SDS011;2417;52.482;13.432;2023-06-10T06:48:43;32.47;;;8.80;;
4806;SDS011;2417;52.482;13.432;2023-06-10T06:51:11;26.20;;;8.83;;
4806;SDS011;2417;52.482;13.432;2023-06-10T06:53:39;22.00;;;8.80;;
4806;SDS011;2417;52.482;13.432;2023-06-10T06:56:12;27.80;;;9.73;;
4806;SDS011;2417;52.482;13.432;2023-06-10T06:58:41;24.27;;;8.80;;
4806;SDS011;2417;52.482;13.432;2023-06-10T07:01:10;25.10;;;8.53;;
4806;SDS011;2417;52.482;13.432;2023-06-10T07:03:41;20.07;;;8.10;;
4806;SDS011;2417;52.482;13.432;2023-06-10T07:06:09;22.57;;;8.30;;
4806;SDS011;2417;52.482;13.432;2023-06-10T07:08:38;19.47;;;8.10;;
4806;SDS011;2417;52.482;13.432;2023-06-10T07:11:06;18.80;;;8.57;;
4806;SDS011;2417;52.482;13.432;2023-06-10T07:13:35;24.43;;;8.20;;
4806;SDS011;2417;52.482;13.432;2023-06-10T07:16:03;24.60;;;8.30;;
4806;SDS011;2417;52.482;13.432;2023-06-10T07:18:31;19.50;;;8.53;;
4806;SDS011;2417;52.482;13.432;2023-06-10T07:20:59;22.23;;;7.97;;
4806;SDS011;2417;52.482;13.432;2023-06-10T07:23:28;20.53;;;9.23;;
4806;SDS011;2417;52.482;13.432;2023-06-10T07:25:56;22.93;;;8.10;;
4806;SDS011;2417;52.482;13.432;2023-06-10T07:28:24;22.00;;;8.30;;
4806;SDS011;2417;52.482;13.432;2023-06-10T07:30:53;26.60;;;9.13;;
4806;SDS011;2417;52.482;13.432;2023-06-10T07:33:21;22.90;;;8.50;;
4806;SDS011;2417;52.482;13.432;2023-06-10T07:35:50;24.00;;;9.10;;
4806;SDS011;2417;52.482;13.432;2023-06-10T07:38:19;22.77;;;9.10;;
4806;SDS011;2417;52.482;13.432;2023-06-10T07:40:47;21.40;;;8.30;;
4806;SDS011;2417;52.482;13.432;2023-06-10T07:43:15;18.40;;;7.63;;
4806;SDS011;2417;52.482;13.432;2023-06-10T07:45:43;21.97;;;8.77;;
4806;SDS011;2417;52.482;13.432;2023-06-10T07:48:12;20.53;;;8.33;;
4806;SDS011;2417;52.482;13.432;2023-06-10T07:50:41;20.30;;;8.10;;
4806;SDS011;2417;52.482;13.432;2023-06-10T07:53:09;29.03;;;8.80;;
4806;SDS011;2417;52.482;13.432;2023-06-10T07:55:36;23.30;;;8.60;;
4806;SDS011;2417;52.482;13.432;2023-06-10T07:58:05;27.23;;;8.70;;
4806;SDS011;2417;52.482;13.432;2023-06-10T08:00:32;23.00;;;8.57;;
4806;SDS011;2417;52.482;13.432;2023-06-10T08:03:01;21.33;;;8.40;;
4806;SDS011;2417;52.482;13.432;2023-06-10T08:05:30;23.40;;;8.77;;
4806;SDS011;2417;52.482;13.432;2023-06-10T08:07:58;21.53;;;8.47;;
4806;SDS011;2417;52.482;13.432;2023-06-10T08:10:30;20.97;;;8.53;;
4806;SDS011;2417;52.482;13.432;2023-06-10T08:13:19;26.80;;;8.47;;
4806;SDS011;2417;52.482;13.432;2023-06-10T08:15:47;24.37;;;7.90;;
4806;SDS011;2417;52.482;13.432;2023-06-10T08:18:17;21.07;;;8.43;;
4806;SDS011;2417;52.482;13.432;2023-06-10T08:20:46;33.27;;;8.47;;
4806;SDS011;2417;52.482;13.432;2023-06-10T08:23:14;23.33;;;8.67;;
4806;SDS011;2417;52.482;13.432;2023-06-10T08:25:42;20.30;;;8.17;;
4806;SDS011;2417;52.482;13.432;2023-06-10T08:28:10;22.60;;;8.10;;
4806;SDS011;2417;52.482;13.432;2023-06-10T08:30:38;20.83;;;8.63;;
4806;SDS011;2417;52.482;13.432;2023-06-10T08:33:06;21.20;;;8.27;;
4806;SDS011;2417;52.482;13.432;2023-06-10T08:35:34;21.00;;;8.17;;
4806;SDS011;2417;52.482;13.432;2023-06-10T08:38:03;19.93;;;9.00;;
4806;SDS011;2417;52.482;13.432;2023-06-10T08:40:32;21.43;;;8.80;;
4806;SDS011;2417;52.482;13.432;2023-06-10T08:43:00;21.30;;;9.30;;
4806;SDS011;2417;52.482;13.432;2023-06-10T08:45:31;19.80;;;7.80;;
4806;SDS011;2417;52.482;13.432;2023-06-10T08:47:59;20.80;;;8.67;;
4806;SDS011;2417;52.482;13.432;2023-06-10T08:50:28;22.00;;;8.80;;
4806;SDS011;2417;52.482;13.432;2023-06-10T08:52:57;20.30;;;8.30;;
4806;SDS011;2417;52.482;13.432;2023-06-10T08:55:29;26.90;;;10.63;;
4806;SDS011;2417;52.482;13.432;2023-06-10T08:57:59;25.23;;;9.00;;
4806;SDS011;2417;52.482;13.432;2023-06-10T09:00:27;20.83;;;8.50;;
4806;SDS011;2417;52.482;13.432;2023-06-10T09:02:55;18.57;;;8.50;;
4806;SDS011;2417;52.482;13.432;2023-06-10T09:05:27;20.43;;;7.87;;
4806;SDS011;2417;52.482;13.432;2023-06-10T09:07:55;20.60;;;8.10;;
4806;SDS011;2417;52.482;13.432;2023-06-10T09:10:23;21.00;;;8.33;;
4806;SDS011;2417;52.482;13.432;2023-06-10T09:12:53;21.40;;;7.87;;
4806;SDS011;2417;52.482;13.432;2023-06-10T09:15:21;27.97;;;9.50;;
4806;SDS011;2417;52.482;13.432;2023-06-10T09:17:48;28.97;;;9.03;;
4806;SDS011;2417;52.482;13.432;2023-06-10T09:20:18;21.27;;;9.30;;
4806;SDS011;2417;52.482;13.432;2023-06-10T09:22:46;22.03;;;8.27;;
4806;SDS011;2417;52.482;13.432;2023-06-10T09:25:14;23.20;;;8.23;;
4806;SDS011;2417;52.482;13.432;2023-06-10T09:27:44;19.77;;;8.03;;
4806;SDS011;2417;52.482;13.432;2023-06-10T09:30:17;18.33;;;7.90;;
4806;SDS011;2417;52.482;13.432;2023-06-10T09:32:52;18.43;;;8.30;;
4806;SDS011;2417;52.482;13.432;2023-06-10T09:35:20;21.43;;;9.67;;
4806;SDS011;2417;52.482;13.432;2023-06-10T09:37:49;27.40;;;9.37;;
4806;SDS011;2417;52.482;13.432;2023-06-10T09:40:17;20.47;;;8.63;;
4806;SDS011;2417;52.482;13.432;2023-06-10T09:42:45;19.27;;;8.30;;
4806;SDS011;2417;52.482;13.432;2023-06-10T09:45:15;19.00;;;7.30;;
4806;SDS011;2417;52.482;13.432;2023-06-10T09:47:46;26.13;;;7.67;;
4806;SDS011;2417;52.482;13.432;2023-06-10T09:50:15;25.13;;;7.07;;
4806;SDS011;2417;52.482;13.432;2023-06-10T09:52:43;24.63;;;8.17;;
4806;SDS011;2417;52.482;13.432;2023-06-10T09:55:13;36.03;;;7.63;;
4806;SDS011;2417;52.482;13.432;2023-06-10T09:57:41;24.17;;;8.10;;
4806;SDS011;2417;52.482;13.432;2023-06-10T10:00:13;25.90;;;8.37;;
4806;SDS011;2417;52.482;13.432;2023-06-10T10:02:47;23.10;;;8.83;;
4806;SDS011;2417;52.482;13.432;2023-06-10T10:05:18;22.77;;;9.00;;
4806;SDS011;2417;52.482;13.432;2023-06-10T10:07:47;29.17;;;9.03;;
4806;SDS011;2417;52.482;13.432;2023-06-10T10:10:18;22.30;;;9.37;;
4806;SDS011;2417;52.482;13.432;2023-06-10T10:12:47;30.83;;;8.73;;
4806;SDS011;2417;52.482;13.432;2023-06-10T10:15:16;25.27;;;9.53;;
4806;SDS011;2417;52.482;13.432;2023-06-10T10:17:48;24.00;;;9.10;;
4806;SDS011;2417;52.482;13.432;2023-06-10T10:20:17;25.17;;;9.20;;
4806;SDS011;2417;52.482;13.432;2023-06-10T10:22:48;25.93;;;9.53;;
4806;SDS011;2417;52.482;13.432;2023-06-10T10:25:21;25.83;;;9.20;;
4806;SDS011;2417;52.482;13.432;2023-06-10T10:27:51;19.33;;;8.73;;
4806;SDS011;2417;52.482;13.432;2023-06-10T10:30:21;24.80;;;9.13;;
4806;SDS011;2417;52.482;13.432;2023-06-10T10:32:53;18.90;;;8.00;;
4806;SDS011;2417;52.482;13.432;2023-06-10T10:35:23;18.70;;;7.70;;
4806;SDS011;2417;52.482;13.432;2023-06-10T10:37:53;17.50;;;7.23;;
4806;SDS011;2417;52.482;13.432;2023-06-10T10:40:21;17.70;;;6.73;;
4806;SDS011;2417;52.482;13.432;2023-06-10T10:42:49;18.23;;;6.93;;
4806;SDS011;2417;52.482;13.432;2023-06-10T10:45:18;18.00;;;7.00;;
4806;SDS011;2417;52.482;13.432;2023-06-10T10:47:47;17.50;;;6.10;;
4806;SDS011;2417;52.482;13.432;2023-06-10T10:50:20;16.70;;;6.10;;
4806;SDS011;2417;52.482;13.432;2023-06-10T10:52:52;21.37;;;6.57;;
4806;SDS011;2417;52.482;13.432;2023-06-10T10:55:21;14.33;;;5.87;;
4806;SDS011;2417;52.482;13.432;2023-06-10T10:57:55;14.87;;;5.40;;
4806;SDS011;2417;52.482;13.432;2023-06-10T11:00:24;13.67;;;5.10;;
4806;SDS011;2417;52.482;13.432;2023-06-10T11:02:52;14.37;;;6.00;;
4806;SDS011;2417;52.482;13.432;2023-06-10T11:05:32;15.03;;;5.90;;
4806;SDS011;2417;52.482;13.432;2023-06-10T11:08:04;17.73;;;6.10;;
4806;SDS011;2417;52.482;13.432;2023-06-10T11:10:33;18.33;;;5.80;;
4806;SDS011;2417;52.482;13.432;2023-06-10T11:13:05;16.10;;;6.10;;
4806;SDS011;2417;52.482;13.432;2023-06-10T11:15:37;51.47;;;7.47;;
4806;SDS011;2417;52.482;13.432;2023-06-10T11:18:06;15.13;;;5.63;;
4806;SDS011;2417;52.482;13.432;2023-06-10T11:20:50;16.23;;;6.03;;
4806;SDS011;2417;52.482;13.432;2023-06-10T11:23:25;19.23;;;6.30;;
4806;SDS011;2417;52.482;13.432;2023-06-10T11:26:08;14.83;;;5.80;;
4806;SDS011;2417;52.482;13.432;2023-06-10T11:28:38;13.77;;;6.87;;
4806;SDS011;2417;52.482;13.432;2023-06-10T11:31:06;12.27;;;5.70;;
4806;SDS011;2417;52.482;13.432;2023-06-10T11:33:36;12.00;;;5.37;;
4806;SDS011;2417;52.482;13.432;2023-06-10T11:36:07;14.13;;;6.33;;
4806;SDS011;2417;52.482;13.432;2023-06-10T11:38:36;15.10;;;6.37;;
4806;SDS011;2417;52.482;13.432;2023-06-10T11:41:04;15.43;;;7.40;;
4806;SDS011;2417;52.482;13.432;2023-06-10T11:43:32;13.60;;;7.03;;
4806;SDS011;2417;52.482;13.432;2023-06-10T11:46:00;13.23;;;6.50;;
4806;SDS011;2417;52.482;13.432;2023-06-10T11:48:28;14.87;;;7.20;;
4806;SDS011;2417;52.482;13.432;2023-06-10T11:50:58;15.83;;;6.83;;
4806;SDS011;2417;52.482;13.432;2023-06-10T11:53:27;13.80;;;5.80;;
4806;SDS011;2417;52.482;13.432;2023-06-10T11:55:55;14.67;;;5.63;;
4806;SDS011;2417;52.482;13.432;2023-06-10T11:58:24;14.50;;;6.40;;
4806;SDS011;2417;52.482;13.432;2023-06-10T12:00:53;13.40;;;5.90;;
4806;SDS011;2417;52.482;13.432;2023-06-10T12:03:23;13.97;;;6.47;;
4806;SDS011;2417;52.482;13.432;2023-06-10T12:05:58;14.27;;;6.27;;
4806;SDS011;2417;52.482;13.432;2023-06-10T12:08:28;15.73;;;6.57;;
4806;SDS011;2417;52.482;13.432;2023-06-10T12:10:58;14.83;;;6.80;;
4806;SDS011;2417;52.482;13.432;2023-06-10T12:13:26;15.40;;;7.33;;
4806;SDS011;2417;52.482;13.432;2023-06-10T12:16:05;14.50;;;5.77;;
4806;SDS011;2417;52.482;13.432;2023-06-10T12:18:34;18.50;;;7.53;;
4806;SDS011;2417;52.482;13.432;2023-06-10T12:21:02;14.40;;;6.13;;
4806;SDS011;2417;52.482;13.432;2023-06-10T12:23:32;16.67;;;8.90;;
4806;SDS011;2417;52.482;13.432;2023-06-10T12:26:00;17.73;;;6.33;;
4806;SDS011;2417;52.482;13.432;2023-06-10T12:28:28;20.03;;;6.83;;
4806;SDS011;2417;52.482;13.432;2023-06-10T12:31:06;15.47;;;7.00;;
4806;SDS011;2417;52.482;13.432;2023-06-10T12:33:34;16.97;;;7.17;;
4806;SDS011;2417;52.482;13.432;2023-06-10T12:36:03;18.93;;;7.90;;
4806;SDS011;2417;52.482;13.432;2023-06-10T12:38:32;23.63;;;8.03;;
4806;SDS011;2417;52.482;13.432;2023-06-10T12:41:01;17.10;;;8.43;;
4806;SDS011;2417;52.482;13.432;2023-06-10T12:43:30;18.40;;;9.87;;
4806;SDS011;2417;52.482;13.432;2023-06-10T12:46:07;17.10;;;8.33;;
4806;SDS011;2417;52.482;13.432;2023-06-10T12:48:36;18.37;;;9.13;;
4806;SDS011;2417;52.482;13.432;2023-06-10T12:51:17;18.30;;;8.77;;
4806;SDS011;2417;52.482;13.432;2023-06-10T12:53:49;17.47;;;8.43;;
4806;SDS011;2417;52.482;13.432;2023-06-10T12:56:17;26.13;;;12.43;;
4806;SDS011;2417;52.482;13.432;2023-06-10T12:58:45;23.90;;;9.50;;
4806;SDS011;2417;52.482;13.432;2023-06-10T13:01:13;20.23;;;9.50;;
4806;SDS011;2417;52.482;13.432;2023-06-10T13:03:41;20.83;;;8.57;;
4806;SDS011;2417;52.482;13.432;2023-06-10T13:06:09;20.07;;;8.27;;
4806;SDS011;2417;52.482;13.432;2023-06-10T13:08:37;16.20;;;7.80;;
4806;SDS011;2417;52.482;13.432;2023-06-10T13:11:06;17.70;;;8.53;;
4806;SDS011;2417;52.482;13.432;2023-06-10T13:13:36;18.43;;;8.43;;
4806;SDS011;2417;52.482;13.432;2023-06-10T13:16:04;20.80;;;9.53;;
4806;SDS011;2417;52.482;13.432;2023-06-10T13:18:33;20.10;;;7.97;;
4806;SDS011;2417;52.482;13.432;2023-06-10T13:21:05;17.73;;;8.50;;
4806;SDS011;2417;52.482;13.432;2023-06-10T13:23:33;16.07;;;8.27;;
4806;SDS011;2417;52.482;13.432;2023-06-10T13:26:02;17.43;;;9.00;;
4806;SDS011;2417;52.482;13.432;2023-06-10T13:28:32;20.20;;;8.90;;
4806;SDS011;2417;52.482;13.432;2023-06-10T13:31:02;20.10;;;8.10;;
4806;SDS011;2417;52.482;13.432;2023-06-10T13:33:30;17.93;;;9.77;;
4806;SDS011;2417;52.482;13.432;2023-06-10T13:35:58;17.10;;;8.20;;
4806;SDS011;2417;52.482;13.432;2023-06-10T13:38:26;20.43;;;8.80;;
4806;SDS011;2417;52.482;13.432;2023-06-10T13:40:54;19.20;;;8.77;;
4806;SDS011;2417;52.482;13.432;2023-06-10T13:43:22;17.00;;;9.37;;
4806;SDS011;2417;52.482;13.432;2023-06-10T13:45:52;20.07;;;9.43;;
4806;SDS011;2417;52.482;13.432;2023-06-10T13:48:20;27.57;;;8.90;;
4806;SDS011;2417;52.482;13.432;2023-06-10T13:50:48;29.97;;;12.27;;
4806;SDS011;2417;52.482;13.432;2023-06-10T13:53:16;36.20;;;14.00;;
4806;SDS011;2417;52.482;13.432;2023-06-10T13:55:44;33.33;;;13.30;;
4806;SDS011;2417;52.482;13.432;2023-06-10T13:58:12;31.43;;;17.33;;
4806;SDS011;2417;52.482;13.432;2023-06-10T14:00:40;33.63;;;17.90;;
4806;SDS011;2417;52.482;13.432;2023-06-10T14:03:09;25.23;;;12.50;;
4806;SDS011;2417;52.482;13.432;2023-06-10T14:05:38;23.50;;;11.07;;
4806;SDS011;2417;52.482;13.432;2023-06-10T14:08:06;19.00;;;8.80;;
4806;SDS011;2417;52.482;13.432;2023-06-10T14:10:35;23.43;;;9.33;;
4806;SDS011;2417;52.482;13.432;2023-06-10T14:13:03;21.33;;;10.60;;
4806;SDS011;2417;52.482;13.432;2023-06-10T14:15:31;23.40;;;10.70;;
4806;SDS011;2417;52.482;13.432;2023-06-10T14:17:59;27.83;;;9.70;;
4806;SDS011;2417;52.482;13.432;2023-06-10T14:20:29;19.03;;;8.60;;
4806;SDS011;2417;52.482;13.432;2023-06-10T14:22:58;17.53;;;8.70;;
4806;SDS011;2417;52.482;13.432;2023-06-10T14:25:26;20.33;;;8.93;;
4806;SDS011;2417;52.482;13.432;2023-06-10T14:27:54;23.57;;;7.90;;
4806;SDS011;2417;52.482;13.432;2023-06-10T14:30:23;19.27;;;7.73;;
4806;SDS011;2417;52.482;13.432;2023-06-10T14:32:52;16.73;;;7.50;;
4806;SDS011;2417;52.482;13.432;2023-06-10T14:35:19;18.30;;;8.20;;
4806;SDS011;2417;52.482;13.432;2023-06-10T14:37:49;18.27;;;7.70;;
4806;SDS011;2417;52.482;13.432;2023-06-10T14:40:18;16.77;;;7.40;;
4806;SDS011;2417;52.482;13.432;2023-06-10T14:42:48;22.20;;;7.73;;
4806;SDS011;2417;52.482;13.432;2023-06-10T14:45:16;18.50;;;8.50;;
4806;SDS011;2417;52.482;13.432;2023-06-10T14:47:44;17.20;;;8.30;;
4806;SDS011;2417;52.482;13.432;2023-06-10T14:50:14;21.60;;;7.50;;
4806;SDS011;2417;52.482;13.432;2023-06-10T14:52:42;22.17;;;7.33;;
4806;SDS011;2417;52.482;13.432;2023-06-10T14:55:11;20.47;;;7.53;;
4806;SDS011;2417;52.482;13.432;2023-06-10T14:57:40;19.00;;;9.00;;
4806;SDS011;2417;52.482;13.432;2023-06-10T15:00:08;16.53;;;7.10;;